sensor_id;sensor_type;location;lat;lon;timestamp;pressure;altitude;pressure_sealevel;temperature;humidity
70343;BME280;57767;42.068;24.752;2023-04-10T00:00:02;99063.53;;;9.42;53.84
70343;BME280;57767;42.068;24.752;2023-04-10T00:01:05;99061.28;;;9.39;54.31
70343;BME280;57767;42.068;24.752;2023-04-10T00:02:07;99062.53;;;9.37;54.58
70343;BME280;57767;42.068;24.752;2023-04-10T00:03:09;99065.16;;;9.37;54.03
70343;BME280;57767;42.068;24.752;2023-04-10T00:04:12;99059.63;;;9.31;53.75
70343;BME280;57767;42.068;24.752;2023-04-10T00:05:15;99062.03;;;9.26;54.29
70343;BME280;57767;42.068;24.752;2023-04-10T00:06:17;99064.84;;;9.18;54.90
70343;BME280;57767;42.068;24.752;2023-04-10T00:07:18;99061.00;;;9.21;54.77
70343;BME280;57767;42.068;24.752;2023-04-10T00:08:22;99058.56;;;9.19;55.13
70343;BME280;57767;42.068;24.752;2023-04-10T00:09:24;99059.75;;;9.17;55.40
70343;BME280;57767;42.068;24.752;2023-04-10T00:10:26;99055.94;;;9.19;54.69
70343;BME280;57767;42.068;24.752;2023-04-10T00:11:30;99058.38;;;9.21;55.16
70343;BME280;57767;42.068;24.752;2023-04-10T00:12:34;99047.22;;;9.19;54.30
70343;BME280;57767;42.068;24.752;2023-04-10T00:13:36;99046.16;;;9.13;54.78
70343;BME280;57767;42.068;24.752;2023-04-10T00:14:38;99044.06;;;9.02;55.52
70343;BME280;57767;42.068;24.752;2023-04-10T00:15:40;99048.38;;;9.10;55.38
70343;BME280;57767;42.068;24.752;2023-04-10T00:16:42;99045.75;;;9.10;55.28
70343;BME280;57767;42.068;24.752;2023-04-10T00:17:44;99049.59;;;9.14;54.58
70343;BME280;57767;42.068;24.752;2023-04-10T00:18:46;99041.28;;;9.10;54.60
70343;BME280;57767;42.068;24.752;2023-04-10T00:19:47;99030.88;;;9.02;54.86
70343;BME280;57767;42.068;24.752;2023-04-10T00:20:49;99035.97;;;9.04;54.72
70343;BME280;57767;42.068;24.752;2023-04-10T00:21:51;99034.69;;;8.93;54.74
70343;BME280;57767;42.068;24.752;2023-04-10T00:22:53;99035.50;;;8.93;54.61
70343;BME280;57767;42.068;24.752;2023-04-10T00:23:55;99025.16;;;8.92;53.78
70343;BME280;57767;42.068;24.752;2023-04-10T00:24:56;99028.16;;;8.89;54.05
70343;BME280;57767;42.068;24.752;2023-04-10T00:25:58;99029.28;;;8.73;53.13
70343;BME280;57767;42.068;24.752;2023-04-10T00:27:00;99040.22;;;8.77;52.82
70343;BME280;57767;42.068;24.752;2023-04-10T00:28:02;99025.16;;;8.64;53.18
70343;BME280;57767;42.068;24.752;2023-04-10T00:29:04;99030.56;;;8.56;52.83
70343;BME280;57767;42.068;24.752;2023-04-10T00:30:07;99020.69;;;8.58;52.65
70343;BME280;57767;42.068;24.752;2023-04-10T00:31:09;99031.19;;;8.58;51.54
70343;BME280;57767;42.068;24.752;2023-04-10T00:32:10;99028.59;;;8.65;51.86
70343;BME280;57767;42.068;24.752;2023-04-10T00:33:12;99028.03;;;8.69;52.58
70343;BME280;57767;42.068;24.752;2023-04-10T00:34:14;99019.97;;;8.71;51.16
70343;BME280;57767;42.068;24.752;2023-04-10T00:35:16;99027.22;;;8.69;50.38
70343;BME280;57767;42.068;24.752;2023-04-10T00:36:18;99024.22;;;8.72;50.87
70343;BME280;57767;42.068;24.752;2023-04-10T00:37:21;99011.00;;;8.65;51.25
70343;BME280;57767;42.068;24.752;2023-04-10T00:38:22;99030.88;;;8.68;51.28
70343;BME280;57767;42.068;24.752;2023-04-10T00:39:24;99021.16;;;8.68;51.27
70343;BME280;57767;42.068;24.752;2023-04-10T00:40:26;99019.97;;;8.71;52.49
70343;BME280;57767;42.068;24.752;2023-04-10T00:41:30;99024.84;;;8.74;53.10
70343;BME280;57767;42.068;24.752;2023-04-10T00:42:32;99024.63;;;8.75;53.81
70343;BME280;57767;42.068;24.752;2023-04-10T00:43:34;99010.63;;;8.68;54.59
70343;BME280;57767;42.068;24.752;2023-04-10T00:44:35;99021.00;;;8.76;55.01
70343;BME280;57767;42.068;24.752;2023-04-10T00:45:38;99021.09;;;8.61;55.85
70343;BME280;57767;42.068;24.752;2023-04-10T00:46:40;99021.72;;;8.36;56.45
70343;BME280;57767;42.068;24.752;2023-04-10T00:47:42;99029.00;;;8.19;57.37
70343;BME280;57767;42.068;24.752;2023-04-10T00:48:44;99021.97;;;8.26;57.30
70343;BME280;57767;42.068;24.752;2023-04-10T00:49:46;99011.28;;;8.27;57.25
70343;BME280;57767;42.068;24.752;2023-04-10T00:50:48;99011.91;;;8.30;57.05
70343;BME280;57767;42.068;24.752;2023-04-10T00:51:50;99012.09;;;8.28;57.04
70343;BME280;57767;42.068;24.752;2023-04-10T00:52:52;99017.44;;;8.35;56.74
70343;BME280;57767;42.068;24.752;2023-04-10T00:53:55;99017.22;;;8.36;56.32
70343;BME280;57767;42.068;24.752;2023-04-10T00:54:57;99010.09;;;8.30;56.77
70343;BME280;57767;42.068;24.752;2023-04-10T00:56:00;99019.69;;;8.38;56.81
70343;BME280;57767;42.068;24.752;2023-04-10T00:57:02;99018.69;;;8.39;56.60
70343;BME280;57767;42.068;24.752;2023-04-10T00:58:05;99015.88;;;8.40;56.69
70343;BME280;57767;42.068;24.752;2023-04-10T00:59:07;99016.22;;;8.37;57.17
70343;BME280;57767;42.068;24.752;2023-04-10T01:00:09;99005.81;;;8.29;57.06
70343;BME280;57767;42.068;24.752;2023-04-10T01:01:11;98982.03;;;8.16;57.07
70343;BME280;57767;42.068;24.752;2023-04-10T01:02:13;99014.41;;;8.38;56.84
70343;BME280;57767;42.068;24.752;2023-04-10T01:03:16;99018.69;;;8.39;57.52
70343;BME280;57767;42.068;24.752;2023-04-10T01:04:20;98997.13;;;8.28;57.27
70343;BME280;57767;42.068;24.752;2023-04-10T01:05:22;99005.63;;;8.31;57.39
70343;BME280;57767;42.068;24.752;2023-04-10T01:06:35;99010.75;;;8.32;56.85
70343;BME280;57767;42.068;24.752;2023-04-10T01:08:06;99009.94;;;8.32;56.89
70343;BME280;57767;42.068;24.752;2023-04-10T01:09:22;99012.72;;;8.30;57.19
70343;BME280;57767;42.068;24.752;2023-04-10T01:12:52;99011.78;;;8.16;58.41
70343;BME280;57767;42.068;24.752;2023-04-10T01:14:15;99005.88;;;8.14;58.08
70343;BME280;57767;42.068;24.752;2023-04-10T01:15:22;99000.94;;;8.05;58.82
70343;BME280;57767;42.068;24.752;2023-04-10T01:16:30;99008.03;;;8.04;58.94
70343;BME280;57767;42.068;24.752;2023-04-10T01:17:49;99009.38;;;8.00;59.38
70343;BME280;57767;42.068;24.752;2023-04-10T01:20:24;99013.22;;;7.98;59.31
70343;BME280;57767;42.068;24.752;2023-04-10T01:21:27;99008.53;;;7.93;59.79
70343;BME280;57767;42.068;24.752;2023-04-10T01:26:01;99011.00;;;7.80;60.17
70343;BME280;57767;42.068;24.752;2023-04-10T01:29:21;99000.19;;;7.68;60.20
70343;BME280;57767;42.068;24.752;2023-04-10T01:30:25;99005.25;;;7.70;60.46
70343;BME280;57767;42.068;24.752;2023-04-10T01:31:49;99003.97;;;7.66;60.30
70343;BME280;57767;42.068;24.752;2023-04-10T01:32:58;99008.59;;;7.64;60.10
70343;BME280;57767;42.068;24.752;2023-04-10T01:34:05;99002.72;;;7.62;60.44
70343;BME280;57767;42.068;24.752;2023-04-10T01:35:08;99004.75;;;7.60;60.76
70343;BME280;57767;42.068;24.752;2023-04-10T01:36:12;98991.69;;;7.51;60.61
70343;BME280;57767;42.068;24.752;2023-04-10T01:37:30;99004.91;;;7.58;60.75
70343;BME280;57767;42.068;24.752;2023-04-10T01:38:33;99010.34;;;7.57;60.69
70343;BME280;57767;42.068;24.752;2023-04-10T01:39:38;98997.59;;;7.53;60.86
70343;BME280;57767;42.068;24.752;2023-04-10T01:40:43;98997.84;;;7.59;60.71
70343;BME280;57767;42.068;24.752;2023-04-10T01:41:51;99011.81;;;7.59;60.59
70343;BME280;57767;42.068;24.752;2023-04-10T01:42:55;99010.19;;;7.58;60.44
70343;BME280;57767;42.068;24.752;2023-04-10T01:43:58;99007.38;;;7.60;60.56
70343;BME280;57767;42.068;24.752;2023-04-10T01:45:03;99001.03;;;7.54;60.76
70343;BME280;57767;42.068;24.752;2023-04-10T01:46:07;99013.63;;;7.59;60.83
70343;BME280;57767;42.068;24.752;2023-04-10T01:47:09;99005.47;;;7.53;60.83
70343;BME280;57767;42.068;24.752;2023-04-10T01:48:11;99008.72;;;7.55;60.88
70343;BME280;57767;42.068;24.752;2023-04-10T01:49:13;99007.97;;;7.62;60.86
70343;BME280;57767;42.068;24.752;2023-04-10T01:50:16;99008.97;;;7.61;60.57
70343;BME280;57767;42.068;24.752;2023-04-10T01:51:19;99006.34;;;7.61;60.63
70343;BME280;57767;42.068;24.752;2023-04-10T01:52:22;98997.47;;;7.62;60.45
70343;BME280;57767;42.068;24.752;2023-04-10T01:53:24;99005.34;;;7.62;60.39
70343;BME280;57767;42.068;24.752;2023-04-10T01:54:27;99009.19;;;7.59;60.38
70343;BME280;57767;42.068;24.752;2023-04-10T01:55:32;99002.19;;;7.51;60.35
70343;BME280;57767;42.068;24.752;2023-04-10T01:56:34;99011.00;;;7.59;60.38
70343;BME280;57767;42.068;24.752;2023-04-10T01:57:36;99010.59;;;7.62;60.24
70343;BME280;57767;42.068;24.752;2023-04-10T01:58:38;99015.84;;;7.62;60.04
70343;BME280;57767;42.068;24.752;2023-04-10T01:59:40;98998.84;;;7.58;59.96
70343;BME280;57767;42.068;24.752;2023-04-10T02:00:42;99008.16;;;7.60;60.16
70343;BME280;57767;42.068;24.752;2023-04-10T02:01:44;98998.22;;;7.55;60.09
70343;BME280;57767;42.068;24.752;2023-04-10T02:02:46;99006.34;;;7.61;60.33
70343;BME280;57767;42.068;24.752;2023-04-10T02:03:48;99010.19;;;7.58;60.52
70343;BME280;57767;42.068;24.752;2023-04-10T02:04:50;99006.97;;;7.63;60.49
70343;BME280;57767;42.068;24.752;2023-04-10T02:06:10;99022.56;;;7.64;60.07
70343;BME280;57767;42.068;24.752;2023-04-10T02:07:30;99009.59;;;7.63;60.58
70343;BME280;57767;42.068;24.752;2023-04-10T02:08:40;99006.72;;;7.58;60.48
70343;BME280;57767;42.068;24.752;2023-04-10T02:10:03;99012.16;;;7.56;60.66
70343;BME280;57767;42.068;24.752;2023-04-10T02:11:20;99013.81;;;7.57;60.62
70343;BME280;57767;42.068;24.752;2023-04-10T02:12:29;99009.53;;;7.56;60.60
70343;BME280;57767;42.068;24.752;2023-04-10T02:13:33;99012.34;;;7.54;60.42
70343;BME280;57767;42.068;24.752;2023-04-10T02:14:37;99018.59;;;7.53;60.73
70343;BME280;57767;42.068;24.752;2023-04-10T02:15:45;99010.72;;;7.53;61.13
70343;BME280;57767;42.068;24.752;2023-04-10T02:16:51;99006.28;;;7.54;60.82
70343;BME280;57767;42.068;24.752;2023-04-10T02:17:55;99001.66;;;7.56;60.85
70343;BME280;57767;42.068;24.752;2023-04-10T02:19:00;99006.91;;;7.56;60.45
70343;BME280;57767;42.068;24.752;2023-04-10T02:20:03;98986.44;;;7.51;60.72
70343;BME280;57767;42.068;24.752;2023-04-10T02:21:07;99005.75;;;7.59;60.92
70343;BME280;57767;42.068;24.752;2023-04-10T02:22:09;99009.53;;;7.56;61.45
70343;BME280;57767;42.068;24.752;2023-04-10T02:23:10;99007.91;;;7.55;61.29
70343;BME280;57767;42.068;24.752;2023-04-10T02:24:12;99000.84;;;7.55;60.99
70343;BME280;57767;42.068;24.752;2023-04-10T02:25:15;98984.16;;;7.48;61.05
70343;BME280;57767;42.068;24.752;2023-04-10T02:26:17;98996.22;;;7.58;60.84
70343;BME280;57767;42.068;24.752;2023-04-10T02:27:34;99004.09;;;7.58;60.81
70343;BME280;57767;42.068;24.752;2023-04-10T02:28:37;98999.66;;;7.58;60.97
70343;BME280;57767;42.068;24.752;2023-04-10T02:29:40;99006.09;;;7.55;60.94
70343;BME280;57767;42.068;24.752;2023-04-10T02:30:41;99009.38;;;7.58;61.01
70343;BME280;57767;42.068;24.752;2023-04-10T02:31:44;98997.22;;;7.57;61.00
70343;BME280;57767;42.068;24.752;2023-04-10T02:32:46;98983.34;;;7.48;61.30
70343;BME280;57767;42.068;24.752;2023-04-10T02:33:48;98996.22;;;7.58;61.28
70343;BME280;57767;42.068;24.752;2023-04-10T02:34:50;99002.13;;;7.60;60.80
70343;BME280;57767;42.068;24.752;2023-04-10T02:35:51;98997.84;;;7.59;60.69
70343;BME280;57767;42.068;24.752;2023-04-10T02:36:53;98984.91;;;7.57;60.26
70343;BME280;57767;42.068;24.752;2023-04-10T02:37:55;98994.22;;;7.60;59.61
70343;BME280;57767;42.068;24.752;2023-04-10T02:38:57;98985.06;;;7.55;60.34
70343;BME280;57767;42.068;24.752;2023-04-10T02:39:59;98983.09;;;7.58;60.02
70343;BME280;57767;42.068;24.752;2023-04-10T02:41:01;98984.25;;;7.55;59.56
70343;BME280;57767;42.068;24.752;2023-04-10T02:42:02;98982.00;;;7.52;59.72
70343;BME280;57767;42.068;24.752;2023-04-10T02:43:04;98971.84;;;7.49;60.19
70343;BME280;57767;42.068;24.752;2023-04-10T02:44:06;98979.19;;;7.53;60.19
70343;BME280;57767;42.068;24.752;2023-04-10T02:45:08;98984.44;;;7.53;60.21
70343;BME280;57767;42.068;24.752;2023-04-10T02:46:10;98974.28;;;7.50;60.31
70343;BME280;57767;42.068;24.752;2023-04-10T02:47:12;98982.81;;;7.52;60.63
70343;BME280;57767;42.068;24.752;2023-04-10T02:48:14;98975.69;;;7.46;60.90
70343;BME280;57767;42.068;24.752;2023-04-10T02:49:16;98963.09;;;7.42;61.36
70343;BME280;57767;42.068;24.752;2023-04-10T02:50:18;98973.78;;;7.40;61.09
70343;BME280;57767;42.068;24.752;2023-04-10T02:51:20;98985.38;;;7.46;61.05
70343;BME280;57767;42.068;24.752;2023-04-10T02:52:22;98979.31;;;7.45;61.08
70343;BME280;57767;42.068;24.752;2023-04-10T02:53:23;98974.22;;;7.44;61.25
70343;BME280;57767;42.068;24.752;2023-04-10T02:54:26;98969.53;;;7.39;61.00
70343;BME280;57767;42.068;24.752;2023-04-10T02:55:28;98972.78;;;7.41;61.30
70343;BME280;57767;42.068;24.752;2023-04-10T02:56:32;98979.66;;;7.42;60.80
70343;BME280;57767;42.068;24.752;2023-04-10T02:57:35;98973.78;;;7.40;60.71
70343;BME280;57767;42.068;24.752;2023-04-10T02:58:37;98982.28;;;7.42;60.51
70343;BME280;57767;42.068;24.752;2023-04-10T02:59:40;98976.06;;;7.43;60.68
70343;BME280;57767;42.068;24.752;2023-04-10T03:00:47;98958.97;;;7.33;59.92
70343;BME280;57767;42.068;24.752;2023-04-10T03:01:49;98973.41;;;7.43;60.15
70343;BME280;57767;42.068;24.752;2023-04-10T03:02:52;98976.06;;;7.43;59.76
70343;BME280;57767;42.068;24.752;2023-04-10T03:03:54;98977.69;;;7.44;60.33
70343;BME280;57767;42.068;24.752;2023-04-10T03:04:57;98969.72;;;7.38;60.05
70343;BME280;57767;42.068;24.752;2023-04-10T03:05:58;98972.59;;;7.43;59.75
70343;BME280;57767;42.068;24.752;2023-04-10T03:07:01;98969.78;;;7.44;59.71
70343;BME280;57767;42.068;24.752;2023-04-10T03:08:02;98978.31;;;7.46;59.47
70343;BME280;57767;42.068;24.752;2023-04-10T03:09:04;98979.13;;;7.47;59.55
70343;BME280;57767;42.068;24.752;2023-04-10T03:10:07;98975.22;;;7.43;59.18
70343;BME280;57767;42.068;24.752;2023-04-10T03:11:09;98974.88;;;7.46;59.12
70343;BME280;57767;42.068;24.752;2023-04-10T03:12:11;98973.88;;;7.47;58.84
70343;BME280;57767;42.068;24.752;2023-04-10T03:13:13;98976.50;;;7.47;59.00
70343;BME280;57767;42.068;24.752;2023-04-10T03:14:14;98971.44;;;7.45;58.66
70343;BME280;57767;42.068;24.752;2023-04-10T03:15:17;98973.66;;;7.48;58.64
70343;BME280;57767;42.068;24.752;2023-04-10T03:16:19;98977.91;;;7.49;58.73
70343;BME280;57767;42.068;24.752;2023-04-10T03:17:21;98978.56;;;7.51;58.40
70343;BME280;57767;42.068;24.752;2023-04-10T03:18:23;98960.91;;;7.45;58.45
70343;BME280;57767;42.068;24.752;2023-04-10T03:19:24;98976.56;;;7.53;58.65
70343;BME280;57767;42.068;24.752;2023-04-10T03:20:27;98972.31;;;7.52;58.57
70343;BME280;57767;42.068;24.752;2023-04-10T03:21:28;98978.00;;;7.56;58.52
70343;BME280;57767;42.068;24.752;2023-04-10T03:22:30;98978.19;;;7.54;58.48
70343;BME280;57767;42.068;24.752;2023-04-10T03:23:33;98977.56;;;7.52;58.96
70343;BME280;57767;42.068;24.752;2023-04-10T03:24:35;98980.00;;;7.54;58.87
70343;BME280;57767;42.068;24.752;2023-04-10T03:25:38;98967.41;;;7.49;58.82
70343;BME280;57767;42.068;24.752;2023-04-10T03:26:40;98977.00;;;7.57;58.43
70343;BME280;57767;42.068;24.752;2023-04-10T03:27:42;98983.09;;;7.58;58.41
70343;BME280;57767;42.068;24.752;2023-04-10T03:28:43;98984.72;;;7.59;58.41
70343;BME280;57767;42.068;24.752;2023-04-10T03:29:45;98985.53;;;7.59;58.17
70343;BME280;57767;42.068;24.752;2023-04-10T03:30:48;98980.06;;;7.61;58.26
70343;BME280;57767;42.068;24.752;2023-04-10T03:31:50;98979.88;;;7.62;58.23
70343;BME280;57767;42.068;24.752;2023-04-10T03:32:52;98969.13;;;7.57;58.17
70343;BME280;57767;42.068;24.752;2023-04-10T03:33:54;98974.44;;;7.64;58.20
70343;BME280;57767;42.068;24.752;2023-04-10T03:34:56;98982.59;;;7.69;57.83
70343;BME280;57767;42.068;24.752;2023-04-10T03:35:59;98977.34;;;7.69;58.20
70343;BME280;57767;42.068;24.752;2023-04-10T03:37:01;98975.72;;;7.68;57.61
70343;BME280;57767;42.068;24.752;2023-04-10T03:38:03;98970.38;;;7.61;57.75
70343;BME280;57767;42.068;24.752;2023-04-10T03:39:05;98976.06;;;7.65;57.71
70343;BME280;57767;42.068;24.752;2023-04-10T03:40:08;98970.19;;;7.63;57.68
70343;BME280;57767;42.068;24.752;2023-04-10T03:41:10;98984.03;;;7.71;57.73
70343;BME280;57767;42.068;24.752;2023-04-10T03:42:12;98989.91;;;7.73;57.53
70343;BME280;57767;42.068;24.752;2023-04-10T03:43:14;98983.84;;;7.73;57.40
70343;BME280;57767;42.068;24.752;2023-04-10T03:44:17;98985.69;;;7.72;57.51
70343;BME280;57767;42.068;24.752;2023-04-10T03:45:19;98979.34;;;7.67;57.55
70343;BME280;57767;42.068;24.752;2023-04-10T03:46:21;98985.69;;;7.72;57.39
70343;BME280;57767;42.068;24.752;2023-04-10T03:47:23;98982.00;;;7.73;57.38
70343;BME280;57767;42.068;24.752;2023-04-10T03:48:25;98983.66;;;7.74;57.16
70343;BME280;57767;42.068;24.752;2023-04-10T03:49:28;98981.19;;;7.73;57.05
70343;BME280;57767;42.068;24.752;2023-04-10T03:50:30;98975.53;;;7.69;56.80
70343;BME280;57767;42.068;24.752;2023-04-10T03:51:32;98982.66;;;7.75;57.11
70343;BME280;57767;42.068;24.752;2023-04-10T03:52:34;98993.63;;;7.79;57.18
70343;BME280;57767;42.068;24.752;2023-04-10T03:53:35;98990.00;;;7.80;56.94
70343;BME280;57767;42.068;24.752;2023-04-10T03:54:37;98988.34;;;7.79;56.79
70343;BME280;57767;42.068;24.752;2023-04-10T03:55:39;98985.09;;;7.77;57.01
70343;BME280;57767;42.068;24.752;2023-04-10T03:56:41;98981.84;;;7.75;56.91
70343;BME280;57767;42.068;24.752;2023-04-10T03:57:44;98991.03;;;7.85;56.79
70343;BME280;57767;42.068;24.752;2023-04-10T03:58:46;98975.84;;;7.81;56.35
70343;BME280;57767;42.068;24.752;2023-04-10T03:59:48;98990.66;;;7.88;56.87
70343;BME280;57767;42.068;24.752;2023-04-10T04:00:50;98982.72;;;7.82;56.55
70343;BME280;57767;42.068;24.752;2023-04-10T04:01:52;98982.56;;;7.83;56.55
70343;BME280;57767;42.068;24.752;2023-04-10T04:02:54;98987.19;;;7.81;56.57
70343;BME280;57767;42.068;24.752;2023-04-10T04:03:56;98990.25;;;7.85;56.47
70343;BME280;57767;42.068;24.752;2023-04-10T04:04:58;98990.03;;;7.86;56.46
70343;BME280;57767;42.068;24.752;2023-04-10T04:06:00;98991.25;;;7.84;56.74
70343;BME280;57767;42.068;24.752;2023-04-10T04:07:02;98992.06;;;7.84;56.74
70343;BME280;57767;42.068;24.752;2023-04-10T04:08:04;98994.47;;;7.86;56.77
70343;BME280;57767;42.068;24.752;2023-04-10T04:09:07;98994.13;;;7.89;56.76
70343;BME280;57767;42.068;24.752;2023-04-10T04:10:08;98987.69;;;7.91;56.79
70343;BME280;57767;42.068;24.752;2023-04-10T04:11:10;98975.47;;;7.84;56.64
70343;BME280;57767;42.068;24.752;2023-04-10T04:12:12;98992.94;;;7.91;56.81
70343;BME280;57767;42.068;24.752;2023-04-10T04:13:14;98996.00;;;7.95;57.04
70343;BME280;57767;42.068;24.752;2023-04-10T04:14:16;98983.88;;;7.94;57.41
70343;BME280;57767;42.068;24.752;2023-04-10T04:15:18;98988.31;;;7.94;56.81
70343;BME280;57767;42.068;24.752;2023-04-10T04:16:20;98985.31;;;7.97;56.11
70343;BME280;57767;42.068;24.752;2023-04-10T04:17:22;98996.69;;;8.04;56.41
70343;BME280;57767;42.068;24.752;2023-04-10T04:18:24;98984.09;;;7.99;56.68
70343;BME280;57767;42.068;24.752;2023-04-10T04:19:26;98987.63;;;8.06;56.28
70343;BME280;57767;42.068;24.752;2023-04-10T04:20:27;98994.94;;;8.11;56.29
70343;BME280;57767;42.068;24.752;2023-04-10T04:21:29;98996.78;;;8.10;56.17
70343;BME280;57767;42.068;24.752;2023-04-10T04:22:31;98991.09;;;8.13;56.47
70343;BME280;57767;42.068;24.752;2023-04-10T04:23:33;98989.94;;;8.16;56.01
70343;BME280;57767;42.068;24.752;2023-04-10T04:24:35;98993.38;;;8.16;56.36
70343;BME280;57767;42.068;24.752;2023-04-10T04:25:37;98985.66;;;8.15;56.06
70343;BME280;57767;42.068;24.752;2023-04-10T04:26:39;98992.81;;;8.21;55.84
70343;BME280;57767;42.068;24.752;2023-04-10T04:27:41;98988.75;;;8.18;56.17
70343;BME280;57767;42.068;24.752;2023-04-10T04:28:42;98993.22;;;8.24;55.35
70343;BME280;57767;42.068;24.752;2023-04-10T04:29:44;98975.59;;;8.18;55.40
70343;BME280;57767;42.068;24.752;2023-04-10T04:30:49;98996.78;;;8.32;55.89
70343;BME280;57767;42.068;24.752;2023-04-10T04:31:51;98988.22;;;8.30;55.66
70343;BME280;57767;42.068;24.752;2023-04-10T04:32:52;98989.69;;;8.32;55.53
70343;BME280;57767;42.068;24.752;2023-04-10T04:33:54;98992.56;;;8.37;55.63
70343;BME280;57767;42.068;24.752;2023-04-10T04:34:56;98994.81;;;8.40;55.85
70343;BME280;57767;42.068;24.752;2023-04-10T04:35:58;99001.53;;;8.43;55.71
70343;BME280;57767;42.068;24.752;2023-04-10T04:37:00;98987.75;;;8.41;55.65
70343;BME280;57767;42.068;24.752;2023-04-10T04:38:03;98994.06;;;8.46;56.09
70343;BME280;57767;42.068;24.752;2023-04-10T04:39:05;98999.75;;;8.50;55.51
70343;BME280;57767;42.068;24.752;2023-04-10T04:40:07;98996.72;;;8.53;55.66
70343;BME280;57767;42.068;24.752;2023-04-10T04:41:09;98995.16;;;8.58;55.29
70343;BME280;57767;42.068;24.752;2023-04-10T04:42:10;98995.56;;;8.62;55.03
70343;BME280;57767;42.068;24.752;2023-04-10T04:43:12;98992.56;;;8.65;54.63
70343;BME280;57767;42.068;24.752;2023-04-10T04:44:14;98995.63;;;8.69;55.43
70343;BME280;57767;42.068;24.752;2023-04-10T04:45:15;98995.44;;;8.70;55.60
70343;BME280;57767;42.068;24.752;2023-04-10T04:46:17;98999.72;;;8.71;55.30
70343;BME280;57767;42.068;24.752;2023-04-10T04:47:19;98993.03;;;8.75;55.61
70343;BME280;57767;42.068;24.752;2023-04-10T04:48:21;98992.22;;;8.75;54.93
70343;BME280;57767;42.068;24.752;2023-04-10T04:49:23;98995.72;;;8.82;55.27
70343;BME280;57767;42.068;24.752;2023-04-10T04:50:24;98992.09;;;8.83;55.17
70343;BME280;57767;42.068;24.752;2023-04-10T04:51:26;98991.66;;;8.79;54.94
70343;BME280;57767;42.068;24.752;2023-04-10T04:52:28;98987.63;;;8.83;55.11
70343;BME280;57767;42.068;24.752;2023-04-10T04:53:30;98994.13;;;8.87;55.44
70343;BME280;57767;42.068;24.752;2023-04-10T04:54:31;99002.91;;;8.94;55.69
70343;BME280;57767;42.068;24.752;2023-04-10T04:55:33;98982.59;;;8.88;55.52
70343;BME280;57767;42.068;24.752;2023-04-10T04:56:35;99001.91;;;9.02;55.02
70343;BME280;57767;42.068;24.752;2023-04-10T04:57:37;98995.44;;;9.05;55.02
70343;BME280;57767;42.068;24.752;2023-04-10T04:58:39;98990.63;;;9.08;54.65
70343;BME280;57767;42.068;24.752;2023-04-10T04:59:41;98995.09;;;9.14;55.25
70343;BME280;57767;42.068;24.752;2023-04-10T05:00:42;98995.94;;;9.21;54.98
70343;BME280;57767;42.068;24.752;2023-04-10T05:01:44;98994.53;;;9.19;55.44
70343;BME280;57767;42.068;24.752;2023-04-10T05:02:46;98991.72;;;9.27;55.30
70343;BME280;57767;42.068;24.752;2023-04-10T05:03:48;98994.97;;;9.29;54.84
70343;BME280;57767;42.068;24.752;2023-04-10T05:04:50;98989.69;;;9.29;55.42
70343;BME280;57767;42.068;24.752;2023-04-10T05:05:52;98990.75;;;9.41;55.41
70343;BME280;57767;42.068;24.752;2023-04-10T05:06:53;98983.25;;;9.38;54.91
70343;BME280;57767;42.068;24.752;2023-04-10T05:07:55;98998.91;;;9.46;54.05
70343;BME280;57767;42.068;24.752;2023-04-10T05:08:57;98998.72;;;9.54;54.78
70343;BME280;57767;42.068;24.752;2023-04-10T05:09:59;98984.09;;;9.52;53.77
70343;BME280;57767;42.068;24.752;2023-04-10T05:11:00;98994.28;;;9.61;54.10
70343;BME280;57767;42.068;24.752;2023-04-10T05:12:02;98990.22;;;9.59;54.40
70343;BME280;57767;42.068;24.752;2023-04-10T05:13:04;98994.09;;;9.69;53.85
70343;BME280;57767;42.068;24.752;2023-04-10T05:14:06;98989.03;;;9.68;54.60
70343;BME280;57767;42.068;24.752;2023-04-10T05:15:08;99000.22;;;9.83;54.16
70343;BME280;57767;42.068;24.752;2023-04-10T05:16:10;98998.59;;;9.89;54.49
70343;BME280;57767;42.068;24.752;2023-04-10T05:17:12;98991.53;;;9.96;54.13
70343;BME280;57767;42.068;24.752;2023-04-10T05:18:15;98996.22;;;10.00;53.30
70343;BME280;57767;42.068;24.752;2023-04-10T05:19:20;99008.41;;;10.08;53.28
70343;BME280;57767;42.068;24.752;2023-04-10T05:20:22;98998.47;;;10.10;52.66
70343;BME280;57767;42.068;24.752;2023-04-10T05:21:23;99005.56;;;10.16;52.71
70343;BME280;57767;42.068;24.752;2023-04-10T05:22:26;99003.16;;;10.21;51.79
70343;BME280;57767;42.068;24.752;2023-04-10T05:23:29;99006.41;;;10.23;52.60
70343;BME280;57767;42.068;24.752;2023-04-10T05:24:30;98999.50;;;10.29;52.17
70343;BME280;57767;42.068;24.752;2023-04-10T05:25:32;99007.44;;;10.35;52.93
70343;BME280;57767;42.068;24.752;2023-04-10T05:26:34;99007.63;;;10.40;53.26
70343;BME280;57767;42.068;24.752;2023-04-10T05:27:36;99007.63;;;10.40;52.90
70343;BME280;57767;42.068;24.752;2023-04-10T05:28:38;99006.22;;;10.45;53.00
70343;BME280;57767;42.068;24.752;2023-04-10T05:29:42;99011.72;;;10.50;54.12
70343;BME280;57767;42.068;24.752;2023-04-10T05:30:44;99012.09;;;10.53;55.54
70343;BME280;57767;42.068;24.752;2023-04-10T05:31:46;99000.13;;;10.51;55.43
70343;BME280;57767;42.068;24.752;2023-04-10T05:32:47;99015.38;;;10.62;54.11
70343;BME280;57767;42.068;24.752;2023-04-10T05:33:49;99010.66;;;10.64;51.18
70343;BME280;57767;42.068;24.752;2023-04-10T05:34:51;99013.72;;;10.67;51.04
70343;BME280;57767;42.068;24.752;2023-04-10T05:35:55;99021.22;;;10.77;51.21
70343;BME280;57767;42.068;24.752;2023-04-10T05:36:57;99016.34;;;10.81;52.52
70343;BME280;57767;42.068;24.752;2023-04-10T05:37:59;99007.00;;;10.78;54.25
70343;BME280;57767;42.068;24.752;2023-04-10T05:39:01;99020.63;;;10.88;53.12
70343;BME280;57767;42.068;24.752;2023-04-10T05:40:03;99015.34;;;10.88;53.68
70343;BME280;57767;42.068;24.752;2023-04-10T05:41:05;99023.25;;;10.95;56.01
70343;BME280;57767;42.068;24.752;2023-04-10T05:42:07;98981.84;;;10.75;56.55
70343;BME280;57767;42.068;24.752;2023-04-10T05:43:08;99017.16;;;11.01;56.61